sensor_id;sensor_type;location;lat;lon;timestamp;P1;durP1;ratioP1;P2;durP2;ratioP2
38427;SDS011;24211;49.980;19.776;2024-03-08T00:00:12;36.08;;;17.88;;
38427;SDS011;24211;49.980;19.776;2024-03-08T00:03:02;43.60;;;19.67;;
38427;SDS011;24211;49.980;19.776;2024-03-08T00:05:32;41.05;;;18.25;;
38427;SDS011;24211;49.980;19.776;2024-03-08T00:07:59;39.47;;;18.25;;
38427;SDS011;24211;49.980;19.776;2024-03-08T00:10:26;41.15;;;17.38;;
38427;SDS011;24211;49.980;19.776;2024-03-08T00:12:55;40.08;;;17.83;;
38427;SDS011;24211;49.980;19.776;2024-03-08T00:15:25;35.92;;;15.77;;
38427;SDS011;24211;49.980;19.776;2024-03-08T00:17:52;40.20;;;18.08;;
38427;SDS011;24211;49.980;19.776;2024-03-08T00:20:20;44.53;;;18.55;;
38427;SDS011;24211;49.980;19.776;2024-03-08T00:22:48;41.25;;;17.85;;
38427;SDS011;24211;49.980;19.776;2024-03-08T00:25:15;40.83;;;17.92;;
38427;SDS011;24211;49.980;19.776;2024-03-08T00:27:43;37.50;;;18.13;;
38427;SDS011;24211;49.980;19.776;2024-03-08T00:30:10;42.38;;;18.75;;
38427;SDS011;24211;49.980;19.776;2024-03-08T00:32:39;43.28;;;18.90;;
38427;SDS011;24211;49.980;19.776;2024-03-08T00:35:08;37.97;;;17.17;;
38427;SDS011;24211;49.980;19.776;2024-03-08T00:37:35;39.90;;;18.38;;
38427;SDS011;24211;49.980;19.776;2024-03-08T00:40:03;38.50;;;16.65;;
38427;SDS011;24211;49.980;19.776;2024-03-08T00:42:36;39.67;;;18.15;;
38427;SDS011;24211;49.980;19.776;2024-03-08T00:45:05;36.28;;;15.60;;
38427;SDS011;24211;49.980;19.776;2024-03-08T00:47:33;37.45;;;17.63;;
38427;SDS011;24211;49.980;19.776;2024-03-08T00:50:01;37.38;;;17.20;;
38427;SDS011;24211;49.980;19.776;2024-03-08T00:52:30;37.47;;;17.10;;
38427;SDS011;24211;49.980;19.776;2024-03-08T00:54:58;33.42;;;14.73;;
38427;SDS011;24211;49.980;19.776;2024-03-08T00:57:25;31.80;;;14.98;;
38427;SDS011;24211;49.980;19.776;2024-03-08T00:59:53;40.15;;;18.02;;
38427;SDS011;24211;49.980;19.776;2024-03-08T01:02:20;39.85;;;18.20;;
38427;SDS011;24211;49.980;19.776;2024-03-08T01:04:49;36.90;;;17.13;;
38427;SDS011;24211;49.980;19.776;2024-03-08T01:07:16;40.75;;;16.65;;
38427;SDS011;24211;49.980;19.776;2024-03-08T01:09:44;36.95;;;16.83;;
38427;SDS011;24211;49.980;19.776;2024-03-08T01:12:13;38.35;;;17.15;;
38427;SDS011;24211;49.980;19.776;2024-03-08T01:14:42;37.63;;;17.95;;
38427;SDS011;24211;49.980;19.776;2024-03-08T01:17:10;27.65;;;12.98;;
38427;SDS011;24211;49.980;19.776;2024-03-08T01:19:38;33.10;;;15.75;;
38427;SDS011;24211;49.980;19.776;2024-03-08T01:22:06;40.88;;;16.83;;
38427;SDS011;24211;49.980;19.776;2024-03-08T01:24:34;33.38;;;15.40;;
38427;SDS011;24211;49.980;19.776;2024-03-08T01:27:02;36.90;;;16.42;;
38427;SDS011;24211;49.980;19.776;2024-03-08T01:29:30;38.00;;;17.05;;
38427;SDS011;24211;49.980;19.776;2024-03-08T01:31:57;34.95;;;16.08;;
38427;SDS011;24211;49.980;19.776;2024-03-08T01:34:27;38.88;;;16.88;;
38427;SDS011;24211;49.980;19.776;2024-03-08T01:36:55;33.53;;;15.50;;
38427;SDS011;24211;49.980;19.776;2024-03-08T01:39:23;31.77;;;16.10;;
38427;SDS011;24211;49.980;19.776;2024-03-08T01:41:50;32.75;;;15.13;;
38427;SDS011;24211;49.980;19.776;2024-03-08T01:44:18;36.03;;;15.80;;
38427;SDS011;24211;49.980;19.776;2024-03-08T01:46:45;35.58;;;16.30;;
38427;SDS011;24211;49.980;19.776;2024-03-08T01:49:14;31.42;;;14.63;;
38427;SDS011;24211;49.980;19.776;2024-03-08T01:51:44;32.28;;;15.43;;
38427;SDS011;24211;49.980;19.776;2024-03-08T01:54:12;30.73;;;13.80;;
38427;SDS011;24211;49.980;19.776;2024-03-08T01:56:43;33.55;;;16.02;;
38427;SDS011;24211;49.980;19.776;2024-03-08T01:59:11;35.40;;;16.65;;
38427;SDS011;24211;49.980;19.776;2024-03-08T02:01:39;34.75;;;16.00;;
38427;SDS011;24211;49.980;19.776;2024-03-08T02:04:06;34.42;;;14.60;;
38427;SDS011;24211;49.980;19.776;2024-03-08T02:06:34;32.90;;;15.98;;
38427;SDS011;24211;49.980;19.776;2024-03-08T02:09:01;29.27;;;13.75;;
38427;SDS011;24211;49.980;19.776;2024-03-08T02:11:33;36.38;;;16.02;;
38427;SDS011;24211;49.980;19.776;2024-03-08T02:14:03;34.55;;;15.85;;
38427;SDS011;24211;49.980;19.776;2024-03-08T02:16:33;34.67;;;15.98;;
38427;SDS011;24211;49.980;19.776;2024-03-08T02:19:00;34.28;;;15.90;;
38427;SDS011;24211;49.980;19.776;2024-03-08T02:21:27;40.15;;;16.85;;
38427;SDS011;24211;49.980;19.776;2024-03-08T02:23:56;35.83;;;16.05;;
38427;SDS011;24211;49.980;19.776;2024-03-08T02:26:23;34.55;;;15.75;;
38427;SDS011;24211;49.980;19.776;2024-03-08T02:28:51;37.53;;;16.63;;
38427;SDS011;24211;49.980;19.776;2024-03-08T02:31:18;31.30;;;14.70;;
38427;SDS011;24211;49.980;19.776;2024-03-08T02:33:45;38.97;;;16.70;;
38427;SDS011;24211;49.980;19.776;2024-03-08T02:36:14;35.33;;;15.73;;
38427;SDS011;24211;49.980;19.776;2024-03-08T02:38:43;35.90;;;16.33;;
38427;SDS011;24211;49.980;19.776;2024-03-08T02:41:10;33.78;;;15.23;;
38427;SDS011;24211;49.980;19.776;2024-03-08T02:43:38;36.58;;;15.70;;
38427;SDS011;24211;49.980;19.776;2024-03-08T02:46:05;35.97;;;16.55;;
38427;SDS011;24211;49.980;19.776;2024-03-08T02:48:32;34.22;;;16.48;;
38427;SDS011;24211;49.980;19.776;2024-03-08T02:50:59;34.63;;;15.80;;
38427;SDS011;24211;49.980;19.776;2024-03-08T02:53:29;35.88;;;16.52;;
38427;SDS011;24211;49.980;19.776;2024-03-08T02:55:56;34.03;;;15.20;;
38427;SDS011;24211;49.980;19.776;2024-03-08T02:58:23;32.00;;;15.40;;
38427;SDS011;24211;49.980;19.776;2024-03-08T03:00:51;34.67;;;16.70;;
38427;SDS011;24211;49.980;19.776;2024-03-08T03:03:18;35.53;;;16.50;;
38427;SDS011;24211;49.980;19.776;2024-03-08T03:05:46;35.40;;;15.73;;
38427;SDS011;24211;49.980;19.776;2024-03-08T03:08:15;32.22;;;15.10;;
38427;SDS011;24211;49.980;19.776;2024-03-08T03:10:44;37.40;;;16.35;;
38427;SDS011;24211;49.980;19.776;2024-03-08T03:13:12;35.17;;;15.63;;
38427;SDS011;24211;49.980;19.776;2024-03-08T03:15:40;28.10;;;14.00;;
38427;SDS011;24211;49.980;19.776;2024-03-08T03:18:10;34.03;;;15.13;;
38427;SDS011;24211;49.980;19.776;2024-03-08T03:20:38;35.60;;;16.90;;
38427;SDS011;24211;49.980;19.776;2024-03-08T03:23:10;33.57;;;15.27;;
38427;SDS011;24211;49.980;19.776;2024-03-08T03:25:40;35.22;;;16.08;;
38427;SDS011;24211;49.980;19.776;2024-03-08T03:28:08;32.38;;;16.02;;
38427;SDS011;24211;49.980;19.776;2024-03-08T03:30:37;36.75;;;17.17;;
38427;SDS011;24211;49.980;19.776;2024-03-08T03:33:06;39.00;;;16.73;;
38427;SDS011;24211;49.980;19.776;2024-03-08T03:35:34;34.47;;;16.08;;
38427;SDS011;24211;49.980;19.776;2024-03-08T03:38:04;36.03;;;15.75;;
38427;SDS011;24211;49.980;19.776;2024-03-08T03:40:37;35.55;;;16.60;;
38427;SDS011;24211;49.980;19.776;2024-03-08T03:43:07;38.53;;;16.00;;
38427;SDS011;24211;49.980;19.776;2024-03-08T03:45:38;39.22;;;17.20;;
38427;SDS011;24211;49.980;19.776;2024-03-08T04:00:34;34.92;;;15.95;;
38427;SDS011;24211;49.980;19.776;2024-03-08T04:03:02;37.30;;;17.40;;
38427;SDS011;24211;49.980;19.776;2024-03-08T04:05:29;38.00;;;18.20;;
38427;SDS011;24211;49.980;19.776;2024-03-08T04:07:58;40.42;;;18.00;;
38427;SDS011;24211;49.980;19.776;2024-03-08T04:10:25;42.05;;;18.45;;
38427;SDS011;24211;49.980;19.776;2024-03-08T04:12:53;36.55;;;17.42;;
38427;SDS011;24211;49.980;19.776;2024-03-08T04:15:20;41.15;;;17.90;;
38427;SDS011;24211;49.980;19.776;2024-03-08T04:17:47;35.17;;;16.05;;
38427;SDS011;24211;49.980;19.776;2024-03-08T04:20:15;52.00;;;23.52;;
38427;SDS011;24211;49.980;19.776;2024-03-08T04:22:44;38.50;;;16.85;;
38427;SDS011;24211;49.980;19.776;2024-03-08T04:25:13;35.92;;;16.90;;
38427;SDS011;24211;49.980;19.776;2024-03-08T04:27:41;44.03;;;19.13;;
38427;SDS011;24211;49.980;19.776;2024-03-08T04:30:08;43.03;;;18.88;;
38427;SDS011;24211;49.980;19.776;2024-03-08T04:32:37;55.25;;;23.15;;
38427;SDS011;24211;49.980;19.776;2024-03-08T04:35:04;73.30;;;29.55;;
38427;SDS011;24211;49.980;19.776;2024-03-08T04:37:32;44.08;;;20.35;;
38427;SDS011;24211;49.980;19.776;2024-03-08T04:40:00;61.65;;;26.55;;
38427;SDS011;24211;49.980;19.776;2024-03-08T04:42:28;80.90;;;32.05;;
38427;SDS011;24211;49.980;19.776;2024-03-08T04:44:56;52.55;;;21.73;;
38427;SDS011;24211;49.980;19.776;2024-03-08T04:47:25;117.15;;;42.15;;
38427;SDS011;24211;49.980;19.776;2024-03-08T04:49:52;54.10;;;21.88;;
38427;SDS011;24211;49.980;19.776;2024-03-08T04:52:21;53.00;;;23.27;;
38427;SDS011;24211;49.980;19.776;2024-03-08T04:54:49;41.90;;;19.10;;
38427;SDS011;24211;49.980;19.776;2024-03-08T04:57:16;60.33;;;25.58;;
38427;SDS011;24211;49.980;19.776;2024-03-08T04:59:45;39.13;;;18.30;;
38427;SDS011;24211;49.980;19.776;2024-03-08T05:02:14;56.40;;;24.38;;
38427;SDS011;24211;49.980;19.776;2024-03-08T05:04:41;43.25;;;18.52;;
38427;SDS011;24211;49.980;19.776;2024-03-08T05:07:10;42.55;;;19.52;;
38427;SDS011;24211;49.980;19.776;2024-03-08T05:09:37;41.10;;;19.15;;
38427;SDS011;24211;49.980;19.776;2024-03-08T05:12:07;111.07;;;38.45;;
38427;SDS011;24211;49.980;19.776;2024-03-08T05:14:34;39.95;;;18.17;;
38427;SDS011;24211;49.980;19.776;2024-03-08T05:17:02;40.35;;;18.10;;
38427;SDS011;24211;49.980;19.776;2024-03-08T05:19:30;49.53;;;20.58;;
38427;SDS011;24211;49.980;19.776;2024-03-08T05:22:01;41.90;;;19.67;;
38427;SDS011;24211;49.980;19.776;2024-03-08T05:24:29;47.38;;;18.60;;
38427;SDS011;24211;49.980;19.776;2024-03-08T05:26:57;76.90;;;29.02;;
38427;SDS011;24211;49.980;19.776;2024-03-08T05:29:27;70.88;;;26.48;;
38427;SDS011;24211;49.980;19.776;2024-03-08T05:31:56;90.72;;;31.10;;
38427;SDS011;24211;49.980;19.776;2024-03-08T05:34:24;111.47;;;38.25;;
38427;SDS011;24211;49.980;19.776;2024-03-08T05:36:53;103.93;;;34.47;;
38427;SDS011;24211;49.980;19.776;2024-03-08T05:39:21;72.50;;;26.48;;
38427;SDS011;24211;49.980;19.776;2024-03-08T05:41:49;48.95;;;21.45;;
38427;SDS011;24211;49.980;19.776;2024-03-08T05:44:17;47.17;;;21.08;;
38427;SDS011;24211;49.980;19.776;2024-03-08T05:46:45;39.28;;;17.67;;
38427;SDS011;24211;49.980;19.776;2024-03-08T05:49:14;38.72;;;17.35;;
38427;SDS011;24211;49.980;19.776;2024-03-08T05:51:42;38.92;;;16.77;;
38427;SDS011;24211;49.980;19.776;2024-03-08T05:54:10;46.90;;;20.65;;
38427;SDS011;24211;49.980;19.776;2024-03-08T05:56:43;41.25;;;17.60;;
38427;SDS011;24211;49.980;19.776;2024-03-08T05:59:12;40.22;;;18.02;;
38427;SDS011;24211;49.980;19.776;2024-03-08T06:01:40;38.20;;;16.92;;
38427;SDS011;24211;49.980;19.776;2024-03-08T06:04:09;39.60;;;17.75;;
38427;SDS011;24211;49.980;19.776;2024-03-08T06:06:40;35.97;;;15.80;;
38427;SDS011;24211;49.980;19.776;2024-03-08T06:09:08;42.20;;;18.38;;
38427;SDS011;24211;49.980;19.776;2024-03-08T06:11:39;39.50;;;18.02;;
38427;SDS011;24211;49.980;19.776;2024-03-08T06:14:06;42.25;;;19.27;;
38427;SDS011;24211;49.980;19.776;2024-03-08T06:16:33;44.30;;;19.38;;
38427;SDS011;24211;49.980;19.776;2024-03-08T06:19:03;42.00;;;18.60;;
38427;SDS011;24211;49.980;19.776;2024-03-08T06:21:30;36.72;;;17.33;;
38427;SDS011;24211;49.980;19.776;2024-03-08T06:24:00;41.42;;;17.98;;
38427;SDS011;24211;49.980;19.776;2024-03-08T06:26:27;36.10;;;17.15;;
38427;SDS011;24211;49.980;19.776;2024-03-08T06:28:57;40.45;;;18.10;;
38427;SDS011;24211;49.980;19.776;2024-03-08T06:31:25;41.75;;;19.30;;
38427;SDS011;24211;49.980;19.776;2024-03-08T06:33:53;41.78;;;19.08;;
38427;SDS011;24211;49.980;19.776;2024-03-08T06:36:22;43.05;;;18.00;;
38427;SDS011;24211;49.980;19.776;2024-03-08T06:38:51;47.78;;;20.52;;
38427;SDS011;24211;49.980;19.776;2024-03-08T06:41:18;40.03;;;17.02;;
38427;SDS011;24211;49.980;19.776;2024-03-08T06:43:46;44.35;;;20.02;;
38427;SDS011;24211;49.980;19.776;2024-03-08T06:46:15;39.35;;;18.17;;
38427;SDS011;24211;49.980;19.776;2024-03-08T06:48:43;42.38;;;19.10;;
38427;SDS011;24211;49.980;19.776;2024-03-08T06:51:13;42.92;;;19.23;;
38427;SDS011;24211;49.980;19.776;2024-03-08T06:53:42;37.42;;;18.00;;
38427;SDS011;24211;49.980;19.776;2024-03-08T06:56:09;40.50;;;17.90;;
38427;SDS011;24211;49.980;19.776;2024-03-08T06:58:37;39.20;;;17.98;;
38427;SDS011;24211;49.980;19.776;2024-03-08T07:01:04;40.42;;;18.02;;
38427;SDS011;24211;49.980;19.776;2024-03-08T07:03:35;31.10;;;15.93;;
38427;SDS011;24211;49.980;19.776;2024-03-08T07:06:02;40.20;;;18.23;;
38427;SDS011;24211;49.980;19.776;2024-03-08T07:08:34;33.88;;;15.63;;
38427;SDS011;24211;49.980;19.776;2024-03-08T07:11:01;40.90;;;17.35;;
38427;SDS011;24211;49.980;19.776;2024-03-08T07:13:30;35.97;;;17.13;;
38427;SDS011;24211;49.980;19.776;2024-03-08T07:15:58;37.78;;;16.52;;
38427;SDS011;24211;49.980;19.776;2024-03-08T07:18:28;41.35;;;18.50;;
38427;SDS011;24211;49.980;19.776;2024-03-08T07:20:57;37.22;;;17.25;;
38427;SDS011;24211;49.980;19.776;2024-03-08T07:23:25;38.47;;;17.58;;
38427;SDS011;24211;49.980;19.776;2024-03-08T07:26:15;38.20;;;17.23;;
38427;SDS011;24211;49.980;19.776;2024-03-08T07:28:43;35.78;;;17.30;;
38427;SDS011;24211;49.980;19.776;2024-03-08T07:31:10;40.13;;;18.58;;
38427;SDS011;24211;49.980;19.776;2024-03-08T07:33:54;38.70;;;17.40;;
38427;SDS011;24211;49.980;19.776;2024-03-08T07:36:21;31.25;;;15.20;;
38427;SDS011;24211;49.980;19.776;2024-03-08T07:38:51;40.63;;;18.27;;
38427;SDS011;24211;49.980;19.776;2024-03-08T07:41:18;41.67;;;18.17;;
38427;SDS011;24211;49.980;19.776;2024-03-08T07:43:46;38.60;;;17.60;;
38427;SDS011;24211;49.980;19.776;2024-03-08T07:46:15;34.40;;;16.52;;
38427;SDS011;24211;49.980;19.776;2024-03-08T07:48:45;39.33;;;18.23;;
38427;SDS011;24211;49.980;19.776;2024-03-08T07:51:15;36.05;;;16.90;;
38427;SDS011;24211;49.980;19.776;2024-03-08T07:53:45;36.35;;;17.33;;
38427;SDS011;24211;49.980;19.776;2024-03-08T07:56:12;38.35;;;17.13;;
38427;SDS011;24211;49.980;19.776;2024-03-08T07:58:40;39.72;;;17.65;;
38427;SDS011;24211;49.980;19.776;2024-03-08T08:01:08;33.75;;;15.40;;
38427;SDS011;24211;49.980;19.776;2024-03-08T08:03:46;35.67;;;16.08;;
38427;SDS011;24211;49.980;19.776;2024-03-08T08:06:15;34.50;;;15.57;;
38427;SDS011;24211;49.980;19.776;2024-03-08T08:08:43;38.45;;;17.38;;
38427;SDS011;24211;49.980;19.776;2024-03-08T08:11:11;37.45;;;18.38;;
38427;SDS011;24211;49.980;19.776;2024-03-08T08:13:39;41.08;;;18.48;;
38427;SDS011;24211;49.980;19.776;2024-03-08T08:16:10;40.28;;;18.02;;
38427;SDS011;24211;49.980;19.776;2024-03-08T08:18:38;34.38;;;15.95;;
38427;SDS011;24211;49.980;19.776;2024-03-08T08:21:06;38.78;;;17.27;;
38427;SDS011;24211;49.980;19.776;2024-03-08T08:23:33;39.40;;;18.25;;
38427;SDS011;24211;49.980;19.776;2024-03-08T08:26:01;39.00;;;18.55;;
38427;SDS011;24211;49.980;19.776;2024-03-08T08:28:32;38.65;;;17.92;;
38427;SDS011;24211;49.980;19.776;2024-03-08T08:30:59;36.97;;;17.17;;
38427;SDS011;24211;49.980;19.776;2024-03-08T08:33:26;37.60;;;16.90;;
38427;SDS011;24211;49.980;19.776;2024-03-08T08:35:53;41.72;;;19.15;;
38427;SDS011;24211;49.980;19.776;2024-03-08T08:38:21;37.22;;;18.25;;
38427;SDS011;24211;49.980;19.776;2024-03-08T08:40:49;36.45;;;16.13;;
38427;SDS011;24211;49.980;19.776;2024-03-08T08:43:17;41.45;;;17.83;;
38427;SDS011;24211;49.980;19.776;2024-03-08T08:45:44;43.33;;;19.25;;
38427;SDS011;24211;49.980;19.776;2024-03-08T08:48:14;37.85;;;17.83;;
38427;SDS011;24211;49.980;19.776;2024-03-08T08:50:42;39.38;;;18.38;;
38427;SDS011;24211;49.980;19.776;2024-03-08T08:53:11;37.70;;;17.85;;
38427;SDS011;24211;49.980;19.776;2024-03-08T08:55:39;36.83;;;17.45;;
38427;SDS011;24211;49.980;19.776;2024-03-08T08:58:07;40.65;;;18.15;;
38427;SDS011;24211;49.980;19.776;2024-03-08T09:00:35;35.53;;;16.85;;
38427;SDS011;24211;49.980;19.776;2024-03-08T09:03:02;36.33;;;17.08;;
38427;SDS011;24211;49.980;19.776;2024-03-08T09:05:30;29.45;;;13.55;;
38427;SDS011;24211;49.980;19.776;2024-03-08T09:07:59;26.95;;;12.98;;
38427;SDS011;24211;49.980;19.776;2024-03-08T09:10:27;37.13;;;16.77;;
38427;SDS011;24211;49.980;19.776;2024-03-08T09:12:57;33.08;;;15.90;;
38427;SDS011;24211;49.980;19.776;2024-03-08T09:15:26;33.40;;;16.80;;
38427;SDS011;24211;49.980;19.776;2024-03-08T09:17:55;36.55;;;17.88;;
38427;SDS011;24211;49.980;19.776;2024-03-08T09:20:23;38.20;;;17.83;;
38427;SDS011;24211;49.980;19.776;2024-03-08T09:22:51;30.15;;;14.60;;
38427;SDS011;24211;49.980;19.776;2024-03-08T09:25:19;37.70;;;18.15;;
38427;SDS011;24211;49.980;19.776;2024-03-08T09:27:47;37.85;;;17.35;;
38427;SDS011;24211;49.980;19.776;2024-03-08T09:30:16;40.65;;;17.55;;
38427;SDS011;24211;49.980;19.776;2024-03-08T09:32:44;36.10;;;16.95;;
38427;SDS011;24211;49.980;19.776;2024-03-08T09:35:13;38.75;;;18.27;;
38427;SDS011;24211;49.980;19.776;2024-03-08T09:37:40;36.17;;;17.63;;
38427;SDS011;24211;49.980;19.776;2024-03-08T09:40:08;37.78;;;17.75;;
38427;SDS011;24211;49.980;19.776;2024-03-08T09:42:42;37.65;;;18.10;;
38427;SDS011;24211;49.980;19.776;2024-03-08T09:45:10;39.45;;;16.98;;
38427;SDS011;24211;49.980;19.776;2024-03-08T09:47:39;34.60;;;16.77;;
38427;SDS011;24211;49.980;19.776;2024-03-08T09:50:08;34.00;;;15.25;;
38427;SDS011;24211;49.980;19.776;2024-03-08T09:52:36;36.63;;;17.33;;
38427;SDS011;24211;49.980;19.776;2024-03-08T09:55:06;31.83;;;14.63;;
38427;SDS011;24211;49.980;19.776;2024-03-08T09:57:34;35.20;;;17.13;;
38427;SDS011;24211;49.980;19.776;2024-03-08T10:00:04;31.10;;;14.93;;
38427;SDS011;24211;49.980;19.776;2024-03-08T10:02:45;33.13;;;15.50;;
38427;SDS011;24211;49.980;19.776;2024-03-08T10:05:13;34.60;;;16.98;;
38427;SDS011;24211;49.980;19.776;2024-03-08T10:07:41;29.42;;;13.98;;
38427;SDS011;24211;49.980;19.776;2024-03-08T10:10:08;34.00;;;16.08;;
38427;SDS011;24211;49.980;19.776;2024-03-08T10:12:39;32.78;;;15.80;;
38427;SDS011;24211;49.980;19.776;2024-03-08T10:15:07;29.05;;;13.85;;
38427;SDS011;24211;49.980;19.776;2024-03-08T10:17:36;30.10;;;14.43;;
38427;SDS011;24211;49.980;19.776;2024-03-08T10:20:03;33.08;;;16.10;;
38427;SDS011;24211;49.980;19.776;2024-03-08T10:22:42;33.45;;;15.55;;
38427;SDS011;24211;49.980;19.776;2024-03-08T10:25:24;42.65;;;18.25;;
38427;SDS011;24211;49.980;19.776;2024-03-08T10:27:51;38.13;;;17.35;;
38427;SDS011;24211;49.980;19.776;2024-03-08T10:30:18;33.08;;;16.60;;
38427;SDS011;24211;49.980;19.776;2024-03-08T10:32:47;38.53;;;17.60;;
38427;SDS011;24211;49.980;19.776;2024-03-08T10:35:15;28.25;;;14.25;;
38427;SDS011;24211;49.980;19.776;2024-03-08T10:37:47;36.85;;;18.48;;
38427;SDS011;24211;49.980;19.776;2024-03-08T10:40:24;36.00;;;17.77;;
38427;SDS011;24211;49.980;19.776;2024-03-08T10:42:55;37.53;;;18.40;;
38427;SDS011;24211;49.980;19.776;2024-03-08T10:45:39;31.38;;;14.80;;
38427;SDS011;24211;49.980;19.776;2024-03-08T10:48:19;25.85;;;13.43;;
38427;SDS011;24211;49.980;19.776;2024-03-08T10:51:05;39.05;;;17.55;;
38427;SDS011;24211;49.980;19.776;2024-03-08T10:53:35;25.17;;;12.63;;
38427;SDS011;24211;49.980;19.776;2024-03-08T10:56:08;35.80;;;16.90;;
38427;SDS011;24211;49.980;19.776;2024-03-08T10:58:36;35.33;;;17.33;;
38427;SDS011;24211;49.980;19.776;2024-03-08T11:01:05;36.90;;;16.20;;
38427;SDS011;24211;49.980;19.776;2024-03-08T11:06:17;33.38;;;16.17;;
38427;SDS011;24211;49.980;19.776;2024-03-08T11:08:50;28.40;;;14.07;;
38427;SDS011;24211;49.980;19.776;2024-03-08T11:11:31;40.28;;;18.25;;
38427;SDS011;24211;49.980;19.776;2024-03-08T11:14:02;33.92;;;16.83;;
38427;SDS011;24211;49.980;19.776;2024-03-08T11:18:59;36.47;;;16.85;;
38427;SDS011;24211;49.980;19.776;2024-03-08T11:21:37;27.02;;;13.20;;
38427;SDS011;24211;49.980;19.776;2024-03-08T11:24:14;26.20;;;12.30;;
38427;SDS011;24211;49.980;19.776;2024-03-08T11:26:44;33.83;;;16.98;;
38427;SDS011;24211;49.980;19.776;2024-03-08T11:34:32;28.98;;;14.05;;
38427;SDS011;24211;49.980;19.776;2024-03-08T11:37:00;24.70;;;11.85;;
38427;SDS011;24211;49.980;19.776;2024-03-08T11:39:27;25.45;;;12.05;;
38427;SDS011;24211;49.980;19.776;2024-03-08T11:41:55;34.55;;;16.80;;
38427;SDS011;24211;49.980;19.776;2024-03-08T11:44:24;30.80;;;15.18;;
38427;SDS011;24211;49.980;19.776;2024-03-08T11:46:54;34.33;;;17.42;;
38427;SDS011;24211;49.980;19.776;2024-03-08T11:49:22;34.60;;;16.52;;
38427;SDS011;24211;49.980;19.776;2024-03-08T11:51:51;27.05;;;12.23;;
38427;SDS011;24211;49.980;19.776;2024-03-08T11:54:20;30.25;;;14.30;;
38427;SDS011;24211;49.980;19.776;2024-03-08T11:56:51;23.90;;;12.45;;
38427;SDS011;24211;49.980;19.776;2024-03-08T11:59:19;31.90;;;16.42;;
38427;SDS011;24211;49.980;19.776;2024-03-08T12:01:57;27.13;;;13.90;;
38427;SDS011;24211;49.980;19.776;2024-03-08T12:04:31;24.55;;;12.27;;
38427;SDS011;24211;49.980;19.776;2024-03-08T12:07:00;30.48;;;15.23;;
38427;SDS011;24211;49.980;19.776;2024-03-08T12:09:29;25.60;;;12.63;;
38427;SDS011;24211;49.980;19.776;2024-03-08T12:11:57;28.02;;;12.55;;
38427;SDS011;24211;49.980;19.776;2024-03-08T12:14:26;29.23;;;14.95;;
38427;SDS011;24211;49.980;19.776;2024-03-08T12:16:53;24.08;;;12.15;;
38427;SDS011;24211;49.980;19.776;2024-03-08T12:19:21;24.92;;;12.07;;
38427;SDS011;24211;49.980;19.776;2024-03-08T12:21:48;21.65;;;11.48;;
38427;SDS011;24211;49.980;19.776;2024-03-08T12:24:16;23.70;;;12.43;;
38427;SDS011;24211;49.980;19.776;2024-03-08T12:26:48;32.17;;;16.20;;
38427;SDS011;24211;49.980;19.776;2024-03-08T12:29:19;21.73;;;11.00;;
38427;SDS011;24211;49.980;19.776;2024-03-08T12:31:55;20.83;;;11.30;;
38427;SDS011;24211;49.980;19.776;2024-03-08T12:34:28;24.95;;;11.68;;
38427;SDS011;24211;49.980;19.776;2024-03-08T12:36:55;22.08;;;11.65;;
38427;SDS011;24211;49.980;19.776;2024-03-08T12:39:24;21.35;;;10.77;;
38427;SDS011;24211;49.980;19.776;2024-03-08T12:41:55;21.17;;;11.10;;
38427;SDS011;24211;49.980;19.776;2024-03-08T12:44:27;20.67;;;11.07;;
38427;SDS011;24211;49.980;19.776;2024-03-08T12:46:55;18.58;;;9.60;;
38427;SDS011;24211;49.980;19.776;2024-03-08T12:49:26;19.45;;;10.43;;
38427;SDS011;24211;49.980;19.776;2024-03-08T12:51:54;18.83;;;9.60;;
38427;SDS011;24211;49.980;19.776;2024-03-08T12:54:22;19.45;;;10.52;;
38427;SDS011;24211;49.980;19.776;2024-03-08T12:56:50;31.23;;;14.88;;
38427;SDS011;24211;49.980;19.776;2024-03-08T12:59:22;17.45;;;9.85;;
38427;SDS011;24211;49.980;19.776;2024-03-08T13:01:51;19.88;;;10.55;;
38427;SDS011;24211;49.980;19.776;2024-03-08T13:04:20;19.92;;;9.93;;
38427;SDS011;24211;49.980;19.776;2024-03-08T13:06:49;18.95;;;9.93;;
38427;SDS011;24211;49.980;19.776;2024-03-08T13:09:21;18.50;;;9.82;;
38427;SDS011;24211;49.980;19.776;2024-03-08T13:11:49;30.75;;;15.70;;
38427;SDS011;24211;49.980;19.776;2024-03-08T13:14:17;20.38;;;10.95;;
38427;SDS011;24211;49.980;19.776;2024-03-08T13:16:44;17.92;;;9.95;;
38427;SDS011;24211;49.980;19.776;2024-03-08T13:19:15;25.92;;;13.18;;
38427;SDS011;24211;49.980;19.776;2024-03-08T13:21:43;20.60;;;10.40;;
38427;SDS011;24211;49.980;19.776;2024-03-08T13:26:45;17.48;;;8.90;;
38427;SDS011;24211;49.980;19.776;2024-03-08T13:29:14;16.70;;;8.88;;
38427;SDS011;24211;49.980;19.776;2024-03-08T13:31:41;15.75;;;9.15;;
38427;SDS011;24211;49.980;19.776;2024-03-08T13:34:09;17.70;;;9.18;;
38427;SDS011;24211;49.980;19.776;2024-03-08T13:36:37;16.58;;;8.85;;
38427;SDS011;24211;49.980;19.776;2024-03-08T13:39:11;18.27;;;9.00;;
38427;SDS011;24211;49.980;19.776;2024-03-08T13:41:47;17.70;;;9.32;;
38427;SDS011;24211;49.980;19.776;2024-03-08T13:44:15;16.30;;;9.00;;
38427;SDS011;24211;49.980;19.776;2024-03-08T13:46:46;14.35;;;8.35;;
38427;SDS011;24211;49.980;19.776;2024-03-08T13:49:18;15.35;;;8.35;;
38427;SDS011;24211;49.980;19.776;2024-03-08T13:51:45;27.85;;;14.43;;
38427;SDS011;24211;49.980;19.776;2024-03-08T13:54:13;18.83;;;10.38;;
38427;SDS011;24211;49.980;19.776;2024-03-08T13:56:42;20.42;;;10.15;;
38427;SDS011;24211;49.980;19.776;2024-03-08T13:59:10;19.10;;;9.50;;
38427;SDS011;24211;49.980;19.776;2024-03-08T14:01:38;19.77;;;9.80;;
38427;SDS011;24211;49.980;19.776;2024-03-08T14:04:05;18.80;;;9.77;;
38427;SDS011;24211;49.980;19.776;2024-03-08T14:06:35;20.23;;;10.85;;
38427;SDS011;24211;49.980;19.776;2024-03-08T14:09:07;19.30;;;10.18;;
38427;SDS011;24211;49.980;19.776;2024-03-08T14:11:35;18.02;;;9.40;;
38427;SDS011;24211;49.980;19.776;2024-03-08T14:14:02;17.85;;;9.32;;
38427;SDS011;24211;49.980;19.776;2024-03-08T14:16:30;19.23;;;9.40;;
38427;SDS011;24211;49.980;19.776;2024-03-08T14:18:57;22.83;;;12.27;;
38427;SDS011;24211;49.980;19.776;2024-03-08T14:21:30;17.85;;;9.63;;
38427;SDS011;24211;49.980;19.776;2024-03-08T14:23:58;16.67;;;9.02;;
38427;SDS011;24211;49.980;19.776;2024-03-08T14:26:25;15.80;;;9.10;;
38427;SDS011;24211;49.980;19.776;2024-03-08T14:28:53;14.95;;;7.97;;
38427;SDS011;24211;49.980;19.776;2024-03-08T14:31:21;15.40;;;8.48;;
38427;SDS011;24211;49.980;19.776;2024-03-08T14:33:53;15.63;;;7.90;;
38427;SDS011;24211;49.980;19.776;2024-03-08T14:36:20;20.48;;;10.88;;
38427;SDS011;24211;49.980;19.776;2024-03-08T14:38:47;28.90;;;15.95;;
38427;SDS011;24211;49.980;19.776;2024-03-08T14:41:15;25.00;;;12.75;;
38427;SDS011;24211;49.980;19.776;2024-03-08T14:43:42;20.67;;;10.63;;